createdAt,value
2022-12-31T00:09:25.772Z,86413.19
2022-12-31T00:19:32.327Z,86411.72
2022-12-31T00:29:38.613Z,86221.91
2022-12-31T00:39:44.940Z,86280.47
2022-12-31T00:49:51.273Z,86346.31
2022-12-31T00:59:57.669Z,86356.19
2022-12-31T01:10:04.200Z,86306.78
2022-12-31T01:20:10.744Z,86359.88
2022-12-31T01:30:17.027Z,86216.59
2022-12-31T01:40:23.321Z,85803.31
2022-12-31T01:50:32.535Z,85742.03
2022-12-31T02:00:39.096Z,85049.53
2022-12-31T02:10:45.412Z,84795.25
2022-12-31T02:20:57.603Z,84681.81
2022-12-31T02:31:16.026Z,84560.56
2022-12-31T02:41:41.029Z,84494.84
2022-12-31T02:51:54.621Z,84291.84
2022-12-31T03:02:15.089Z,84158.28
2022-12-31T03:12:42.942Z,84653.78
2022-12-31T03:22:49.251Z,84425.81
2022-12-31T03:32:57.445Z,84722.31
2022-12-31T03:43:03.747Z,84659.63
2022-12-31T03:53:10.128Z,84732.94
2022-12-31T04:03:16.587Z,84788.63
2022-12-31T04:13:22.933Z,85012.16
2022-12-31T04:23:29.481Z,85138.69
2022-12-31T04:33:35.796Z,85320.63
2022-12-31T04:43:42.482Z,85273.72
2022-12-31T04:53:49.049Z,85251.72
2022-12-31T05:03:55.442Z,85246.19
2022-12-31T05:14:01.720Z,85273.00
2022-12-31T05:24:08.505Z,85382.03
2022-12-31T05:34:14.837Z,85496.59
2022-12-31T05:44:21.111Z,85479.38
2022-12-31T05:54:27.472Z,85564.59
2022-12-31T06:04:33.842Z,85632.16
2022-12-31T06:14:45.431Z,85484.22
2022-12-31T06:24:52.176Z,85603.28
2022-12-31T06:34:58.796Z,85518.41
2022-12-31T06:45:05.516Z,85623.19
2022-12-31T06:55:12.408Z,85747.06
2022-12-31T07:05:27.862Z,85764.03
2022-12-31T07:15:58.839Z,85875.78
2022-12-31T07:26:14.622Z,85895.69
2022-12-31T07:36:32.414Z,85931.78
2022-12-31T07:46:57.723Z,85903.16
2022-12-31T07:57:04.257Z,85874.62
2022-12-31T08:07:24.570Z,85784.91
2022-12-31T08:17:31.095Z,85905.50
2022-12-31T08:27:40.461Z,86237.63
2022-12-31T08:38:01.768Z,86802.16
2022-12-31T08:48:37.422Z,87510.19
2022-12-31T08:59:01.514Z,88177.56
2022-12-31T09:09:30.464Z,88421.75
2022-12-31T09:19:36.798Z,88844.44
2022-12-31T09:29:45.754Z,89391.66
2022-12-31T09:39:52.307Z,89508.13
2022-12-31T09:50:04.712Z,89405.59
2022-12-31T10:00:16.847Z,89705.09
2022-12-31T10:10:39.082Z,89706.16
2022-12-31T10:21:00.530Z,89571.19
2022-12-31T10:31:15.940Z,89546.56
2022-12-31T10:41:31.248Z,89592.16
2022-12-31T10:51:59.370Z,89999.00
2022-12-31T11:02:17.994Z,90184.41
2022-12-31T11:12:42.943Z,90645.31
2022-12-31T11:23:05.427Z,91494.53
2022-12-31T11:33:33.401Z,91654.56
2022-12-31T11:44:13.259Z,92181.31
2022-12-31T11:54:22.353Z,92401.03
2022-12-31T12:04:29.390Z,92681.63
2022-12-31T12:14:41.831Z,93009.47
2022-12-31T12:25:09.071Z,93231.25
2022-12-31T12:35:17.606Z,93283.31
2022-12-31T12:45:50.731Z,93333.22
2022-12-31T12:56:23.926Z,93356.97
2022-12-31T13:06:47.526Z,93402.41
2022-12-31T13:16:56.718Z,93408.97
2022-12-31T13:27:20.620Z,93422.22
2022-12-31T13:37:35.205Z,93432.41
2022-12-31T13:47:50.911Z,93447.81
2022-12-31T13:58:06.419Z,93457.81
2022-12-31T14:08:12.774Z,93504.97
2022-12-31T14:18:24.450Z,93512.00
2022-12-31T14:28:51.063Z,93568.91
2022-12-31T14:39:19.575Z,93526.72
2022-12-31T14:49:44.377Z,93431.47
2022-12-31T14:59:56.909Z,93420.69
2022-12-31T15:10:15.172Z,93385.16
2022-12-31T15:20:30.515Z,93347.03
2022-12-31T15:30:41.363Z,93332.47
2022-12-31T15:40:50.772Z,93336.03
2022-12-31T15:51:00.238Z,93314.94
2022-12-31T16:01:21.039Z,93244.06
2022-12-31T16:11:31.193Z,93222.91
2022-12-31T16:21:39.124Z,93193.56
2022-12-31T16:31:47.008Z,93233.09
2022-12-31T16:41:54.073Z,93245.03
2022-12-31T16:52:05.021Z,93302.13
2022-12-31T17:02:17.712Z,93360.41
2022-12-31T17:12:26.455Z,93371.56
2022-12-31T17:22:37.250Z,93431.84
2022-12-31T17:32:46.061Z,93550.66
2022-12-31T17:42:52.376Z,93612.31
2022-12-31T17:53:01.896Z,93660.28
2022-12-31T18:03:08.283Z,93737.75
2022-12-31T18:13:24.106Z,93812.56
2022-12-31T18:23:34.324Z,93964.03
2022-12-31T18:33:40.611Z,94109.84
2022-12-31T18:43:47.546Z,94187.91
2022-12-31T18:53:53.834Z,94315.25
2022-12-31T19:04:04.956Z,94373.03
2022-12-31T19:14:23.370Z,94460.25
2022-12-31T19:24:29.352Z,94547.03
2022-12-31T19:34:35.690Z,94637.75
2022-12-31T19:44:42.040Z,94691.97
2022-12-31T19:54:48.781Z,94989.03
2022-12-31T20:04:55.105Z,95059.38
2022-12-31T20:15:01.445Z,95119.22
2022-12-31T20:25:08.073Z,95149.91
2022-12-31T20:35:14.382Z,95181.84
2022-12-31T20:45:20.663Z,95177.91
2022-12-31T20:55:26.935Z,95168.56
2022-12-31T21:05:33.473Z,95139.31
2022-12-31T21:15:39.990Z,95089.00
2022-12-31T21:25:47.171Z,95025.97
2022-12-31T21:35:54.291Z,94973.13
2022-12-31T21:46:07.237Z,94922.59
2022-12-31T21:56:15.692Z,94914.78
2022-12-31T22:06:23.355Z,94915.66
2022-12-31T22:16:29.706Z,94901.06
2022-12-31T22:26:36.887Z,94888.09
2022-12-31T22:36:45.663Z,94868.53
2022-12-31T22:46:52.037Z,94881.06
2022-12-31T22:56:58.427Z,94936.62
2022-12-31T23:07:04.825Z,94983.38
2022-12-31T23:17:44.579Z,95013.44
2022-12-31T23:27:50.904Z,95071.03
2022-12-31T23:37:57.201Z,95136.50
2022-12-31T23:48:03.708Z,95202.31
2022-12-31T23:58:10.072Z,95312.97
